SpazioLink.com il tuo mini portale

Terremoti in Italia, posizione geografica

Spaziolink il MiniPortale

Home Sfondi Screenmates SuperEnalotto Posizione navi Terremoti Calendario feste Barzellette Frasi utili Giochi Meteo Gifs Software Ricerca
Lista dei terremoti in Italia in tempo reale dopo l'elaborazione dei valori rilevati dai sensori dislocati nelle zone interessate, comprendenti gli eventi sismici di elevata magnitudo sull'intero globo, per visualizzare la posizione dell'epicentro su Google Maps cliccare sul nome del luogo evidenziato in blu.
DATA ORA MAG ≥ 2 ZONA REGIONE LAT LONG PROF km
18/09/2021 07:02:43 ML 2.8 7 km a sud di Montieri (GR) Toscana 43.07 11.02 9.0
18/09/2021 06:08:18 ML 2.4 Isole Eolie (Messina) Mare 38.61 15.25 195.3
17/09/2021 21:01:41 ML 2.7 Mar Ionio Meridionale (MARE) Mare 37.37 16.12 14.4
17/09/2021 20:46:55 ML 2.1 1 km a est di Basic˛ (ME) Sicilia 38.06 15.08 7.7
17/09/2021 17:38:04 ML 2.0 Adriatico Centrale (MARE) Mare 43.48 14.29 11.6
17/09/2021 15:00:45 ML 2.0 Mar Ionio Meridionale (MARE) Mare 37.47 15.83 6.7
17/09/2021 14:16:21 ML 2.2 3 km a nord di Lesignano de` Bagni (PR) Emilia Romagna 44.67 10.31 23.1
17/09/2021 14:14:48 ML 2.6 4 km a est di Felino (PR) Emilia Romagna 44.68 10.28 31.0
17/09/2021 14:13:59 ML 2.6 2 km a nord-ovest di Traversetolo (PR) Emilia Romagna 44.66 10.36 24.2
17/09/2021 01:57:29 ML 2.5 Mar Ionio Meridionale (MARE) Mare 36.46 16.31 7.2
16/09/2021 23:51:38 ML 2.7 6 km a sud di Pietralunga (PG) Umbria 43.39 12.45 8.1
16/09/2021 23:25:28 ML 2.3 Tirreno Meridionale (MARE) Mare 38.52 15.54 132.7
16/09/2021 00:02:30 ML 2.0 2 km a est di Montieri (GR) Toscana 43.13 11.04 9.1
15/09/2021 23:53:24 ML 2.2 2 km a nord-ovest di Rodý Milici (ME) Sicilia 38.12 15.16 12.8
15/09/2021 23:03:01 ML 2.9 4 km a nord-ovest di Apecchio (PU) Marche 43.59 12.39 10.2
15/09/2021 21:33:40 ML 3.3 4 km a ovest di Solignano (PR) Emilia Romagna 44.63 9.93 27.1
15/09/2021 19:56:28 ML 2.1 6 km a est di Felino (PR) Emilia Romagna 44.70 10.32 22.2
15/09/2021 16:35:28 ML 3.1 Costa Siciliana nord-orientale (Messina) Mare 38.25 14.81 117.2
15/09/2021 14:26:53 ML 4.2 Albania (Land) Mondo 42.28 19.47 20.4
15/09/2021 14:25:45 ML 3.1 Albania (Land) Mondo 42.30 19.50 23.3
15/09/2021 04:19:43 ML 4.2 Albania (Land) Mondo 42.28 19.50 20.4
15/09/2021 02:34:02 ML 2.1 2 km a est di Neviano degli Arduini (PR) Emilia Romagna 44.58 10.34 26.4
15/09/2021 00:38:22 ML 2.6 Costa Siracusana (Siracusa) Mare 37.06 15.30 9.6
14/09/2021 21:45:21 ML 2.1 Mar Ionio Settentrionale (MARE) Mare 37.91 16.60 46.6
14/09/2021 19:46:55 ML 2.3 5 km a sud-ovest di Salsomaggiore Terme (PR) Emilia Romagna 44.78 9.95 29.7
14/09/2021 19:45:45 ML 2.9 4 km a sud-ovest di Salsomaggiore Terme (PR) Emilia Romagna 44.79 9.93 30.7
14/09/2021 04:16:35 ML 2.6 6 km a sud-est di Canossa (RE) Emilia Romagna 44.56 10.47 8.6
14/09/2021 04:13:13 ML 2.4 6 km a nord-ovest di Casina (RE) Emilia Romagna 44.56 10.47 5.7
14/09/2021 04:02:23 ML 2.2 4 km nord-est Casina (RE) Emilia Romagna 44.54 10.53 23.4
14/09/2021 00:46:06 Mwp 5.9 Southeast of Honshu, Japan (Sea: Japan) Mondo 32.34 137.98 373.8
14/09/2021 00:04:57 ML 2.3 8 km a sud-est di Francavilla Marittima (CS) Calabria 39.76 16.43 10.0
13/09/2021 22:48:09 ML 2.2 3 km a est di Pellegrino Parmense (PR) Emilia Romagna 44.74 9.96 62.4
13/09/2021 21:51:17 ML 2.0 1 km a ovest di Rodý Milici (ME) Sicilia 38.11 15.16 15.3
13/09/2021 16:23:40 ML 2.1 4 km a sud-est di Monterosso Grana (CN) Piemonte 44.38 7.35 9.4
13/09/2021 08:44:07 ML 2.0 1 km a sud-ovest di Barcellona Pozzo di Gotto (ME) Sicilia 38.14 15.21 11.0
13/09/2021 07:18:10 Mwp 6.1 Argentina (Land) Mondo -23.83 -67.07 176.2
12/09/2021 19:38:39 ML 2.5 3 km a est di Bolognola (MC) Marche 42.99 13.26 24.9
12/09/2021 13:34:04 ML 2.0 4 km a est di Bolognola (MC) Marche 42.99 13.28 25.6
12/09/2021 10:54:12 ML 2.3 3 km a est di Accumoli (RI) Lazio 42.68 13.28 8.9
12/09/2021 08:35:34 ML 2.3 Costa Marchigiana Anconetana (Ancona) Mare 43.86 13.34 9.7
12/09/2021 04:06:57 ML 2.4 2 km a sud-ovest di Vallelonga (VV) Calabria 38.64 16.28 6.3
12/09/2021 00:49:30 ML 2.1 1 km a ovest di Premilcuore (FC) Emilia Romagna 43.98 11.77 8.9
11/09/2021 22:49:37 ML 3.9 Costa Albanese meridionale (ALBANIA) Mare 40.25 19.51 19.4
11/09/2021 07:00:34 ML 2.0 Tirreno Meridionale (MARE) Mare 38.51 15.52 131.1
Locations of visitors to this page (counting)
- subnet mask - partners - ipcheck - favicon - speedtest - canale youtube - programmone